createdAt,value
2018-05-21T18:27:58.383Z,99850.50
2018-05-21T18:30:24.342Z,99851.86
2018-05-21T18:32:50.329Z,99843.97
2018-05-21T18:35:16.300Z,99853.94
2018-05-21T18:37:42.316Z,99851.38
2018-05-21T18:40:08.297Z,99848.75
2018-05-21T18:42:34.367Z,99847.33
2018-05-21T18:45:00.328Z,99847.53
2018-05-21T18:47:26.269Z,99849.00
2018-05-21T18:49:52.255Z,99848.95
2018-05-21T18:52:18.187Z,99855.08
2018-05-21T18:54:44.150Z,99834.14
2018-05-21T18:57:10.150Z,99854.73
2018-05-21T18:59:36.103Z,99855.97
2018-05-21T19:02:02.058Z,99853.45
2018-05-21T19:04:27.990Z,99853.65
2018-05-21T19:06:53.933Z,99860.27
2018-05-21T19:09:19.952Z,99868.00
2018-05-21T19:11:45.922Z,99868.66
2018-05-21T19:14:11.885Z,99862.98
2018-05-21T19:16:37.834Z,99872.97
2018-05-21T19:19:03.791Z,99874.09
2018-05-21T19:21:29.786Z,99868.47
2018-05-21T19:23:56.859Z,99872.30
2018-05-21T19:26:22.844Z,99870.73
2018-05-21T19:28:48.887Z,99867.41
2018-05-21T19:31:14.853Z,99866.06
2018-05-21T19:33:40.853Z,99859.81
2018-05-21T19:36:06.831Z,99863.55
2018-05-21T19:38:32.798Z,99868.36
2018-05-21T19:40:58.840Z,99872.30
2018-05-21T19:43:24.869Z,99874.62
2018-05-21T19:45:50.866Z,99869.09
2018-05-21T19:48:16.869Z,99871.25
2018-05-21T19:50:42.829Z,99866.34
2018-05-21T19:53:08.779Z,99870.69
2018-05-21T19:55:34.857Z,99865.49
2018-05-21T19:58:00.810Z,99869.67
2018-05-21T20:00:26.805Z,99870.31
2018-05-21T20:02:52.762Z,99869.97
2018-05-21T20:05:18.834Z,99870.52
2018-05-21T20:07:44.797Z,99874.70
2018-05-21T20:10:10.870Z,99868.16
2018-05-21T20:12:36.805Z,99873.75
2018-05-21T20:15:02.779Z,99865.96
2018-05-21T20:17:28.735Z,99862.29
2018-05-21T20:19:54.760Z,99869.91
2018-05-21T20:22:20.712Z,99870.80
2018-05-21T20:24:46.675Z,99864.92
2018-05-21T20:27:12.625Z,99864.75
2018-05-21T20:29:38.547Z,99862.85
2018-05-21T20:32:04.479Z,99866.22
2018-05-21T20:34:30.423Z,99860.16
2018-05-21T20:36:56.373Z,99866.77
2018-05-21T20:39:22.360Z,99860.58
2018-05-21T20:41:48.308Z,99857.25
2018-05-21T20:44:14.400Z,99862.54
2018-05-21T20:46:40.350Z,99861.66
2018-05-21T20:49:06.330Z,99853.84
2018-05-21T20:51:32.304Z,99861.97
2018-05-21T20:53:58.247Z,99855.99
2018-05-21T20:56:24.203Z,99859.50
2018-05-21T20:58:50.179Z,99856.64
2018-05-21T21:01:16.252Z,99851.36
2018-05-21T21:03:42.171Z,99850.86
2018-05-21T21:06:08.137Z,99849.44
2018-05-21T21:08:34.108Z,99853.86
2018-05-21T21:11:00.095Z,99851.16
2018-05-21T21:13:26.028Z,99852.69
2018-05-21T21:15:52.007Z,99844.84
2018-05-21T21:18:18.018Z,99843.41
2018-05-21T21:20:45.433Z,99843.17
2018-05-21T21:23:11.392Z,99845.17
2018-05-21T21:25:37.358Z,99849.16
2018-05-21T21:28:03.385Z,99845.23
2018-05-21T21:30:29.341Z,99848.77
2018-05-21T21:32:55.359Z,99841.21
2018-05-21T21:35:21.297Z,99843.34
2018-05-21T21:37:47.262Z,99839.52
2018-05-21T21:40:13.206Z,99842.13
2018-05-21T21:42:39.162Z,99841.21
2018-05-21T21:45:05.101Z,99842.33
2018-05-21T21:47:31.046Z,99843.06
2018-05-21T21:49:57.019Z,99844.40
2018-05-21T21:52:22.978Z,99841.27
2018-05-21T21:54:48.917Z,99848.16
2018-05-21T21:57:14.869Z,99843.98
2018-05-21T21:59:40.825Z,99839.20
2018-05-21T22:02:06.803Z,99838.64
2018-05-21T22:04:32.754Z,99843.77
2018-05-21T22:06:58.729Z,99837.30
2018-05-21T22:09:24.661Z,99842.06
2018-05-21T22:11:50.639Z,99832.00
2018-05-21T22:14:16.582Z,99826.27
2018-05-21T22:16:42.529Z,99823.63
2018-05-21T22:19:08.479Z,99821.31
2018-05-21T22:21:34.438Z,99821.24
2018-05-21T22:24:00.373Z,99821.86
2018-05-21T22:26:26.399Z,99817.27
2018-05-21T22:28:52.361Z,99816.94
2018-05-21T22:31:18.373Z,99815.47
2018-05-21T22:33:44.312Z,99822.02
2018-05-21T22:36:10.271Z,99819.44
2018-05-21T22:38:36.226Z,99812.06
2018-05-21T22:41:02.182Z,99813.41
2018-05-21T22:43:28.145Z,99809.21
2018-05-21T22:45:54.124Z,99809.64
2018-05-21T22:48:20.091Z,99812.03
2018-05-21T22:50:46.061Z,99813.27
2018-05-21T22:53:12.007Z,99810.64
2018-05-21T22:55:37.949Z,99807.45
2018-05-21T22:58:03.899Z,99808.14
2018-05-21T23:00:29.847Z,99812.38
2018-05-21T23:02:55.787Z,99809.98
2018-05-21T23:05:21.728Z,99810.50
2018-05-21T23:07:47.664Z,99802.61
2018-05-21T23:10:13.609Z,99797.50
2018-05-21T23:12:39.552Z,99801.33
2018-05-21T23:15:05.522Z,99803.28
2018-05-21T23:17:31.456Z,99799.02
2018-05-21T23:19:57.483Z,99802.98
2018-05-21T23:22:23.437Z,99797.94
2018-05-21T23:24:49.370Z,99798.91
2018-05-21T23:27:15.297Z,99796.45
2018-05-21T23:29:41.245Z,99796.97
2018-05-21T23:32:07.281Z,99791.62
2018-05-21T23:34:33.157Z,99790.47
2018-05-21T23:36:59.085Z,99785.80
2018-05-21T23:39:25.043Z,99786.27
2018-05-21T23:41:51.030Z,99782.59
2018-05-21T23:44:16.992Z,99780.44
2018-05-21T23:46:42.935Z,99776.63
2018-05-21T23:49:08.873Z,99777.45
2018-05-21T23:51:34.820Z,99773.31
2018-05-21T23:54:00.746Z,99775.03
2018-05-21T23:56:26.706Z,99774.19
2018-05-21T23:58:52.652Z,99769.67
